createdAt,value
2017-12-29T00:01:48.994Z,82.13
2017-12-29T00:04:16.396Z,82.17
2017-12-29T00:06:43.782Z,82.61
2017-12-29T00:09:11.174Z,82.80
2017-12-29T00:11:38.578Z,82.91
2017-12-29T00:14:06.780Z,83.98
2017-12-29T00:16:34.163Z,84.33
2017-12-29T00:19:01.562Z,84.42
2017-12-29T00:21:29.050Z,83.81
2017-12-29T00:23:56.458Z,83.28
2017-12-29T00:26:23.846Z,83.37
2017-12-29T00:28:51.320Z,82.74
2017-12-29T00:31:18.702Z,83.29
2017-12-29T00:33:46.099Z,82.37
2017-12-29T00:36:13.482Z,82.26
2017-12-29T00:38:40.940Z,82.48
2017-12-29T00:41:08.362Z,82.23
2017-12-29T00:43:35.762Z,82.00
2017-12-29T00:46:03.170Z,82.34
2017-12-29T00:48:30.558Z,81.95
2017-12-29T00:50:57.941Z,82.10
2017-12-29T00:53:25.334Z,81.95
2017-12-29T00:55:52.720Z,82.10
2017-12-29T00:58:20.130Z,82.17
2017-12-29T01:00:47.526Z,81.88
2017-12-29T01:03:14.913Z,81.94
2017-12-29T01:05:42.314Z,81.75
2017-12-29T01:08:09.698Z,81.38
2017-12-29T01:10:37.095Z,81.35
2017-12-29T01:13:04.510Z,80.88
2017-12-29T01:15:31.921Z,80.86
2017-12-29T01:17:59.307Z,81.14
2017-12-29T01:20:26.692Z,81.14
2017-12-29T01:22:54.086Z,81.03
2017-12-29T01:25:21.479Z,80.87
2017-12-29T01:27:48.857Z,80.58
2017-12-29T01:30:16.249Z,80.97
2017-12-29T01:32:43.640Z,80.99
2017-12-29T01:35:11.036Z,81.33
2017-12-29T01:37:38.418Z,81.55
2017-12-29T01:40:05.819Z,81.75
2017-12-29T01:42:33.217Z,81.27
2017-12-29T01:45:00.598Z,80.72
2017-12-29T01:47:27.983Z,80.53
2017-12-29T01:49:55.387Z,80.99
2017-12-29T01:52:22.767Z,81.00
2017-12-29T01:54:50.151Z,80.82
2017-12-29T01:57:17.547Z,81.02
2017-12-29T01:59:44.926Z,81.30
2017-12-29T02:02:12.319Z,80.94
2017-12-29T02:04:39.720Z,80.88
2017-12-29T02:07:07.110Z,81.07
2017-12-29T02:09:34.503Z,81.18
2017-12-29T02:12:01.905Z,81.68
2017-12-29T02:14:29.291Z,81.85
2017-12-29T02:16:56.691Z,81.68
2017-12-29T02:19:24.073Z,81.53
2017-12-29T02:21:51.478Z,81.17
2017-12-29T02:24:18.862Z,81.26
2017-12-29T02:26:46.267Z,81.76
2017-12-29T02:29:13.659Z,81.46
2017-12-29T02:31:41.162Z,81.43
2017-12-29T02:34:08.559Z,81.36
2017-12-29T02:36:35.939Z,81.27
2017-12-29T02:39:03.335Z,81.10
2017-12-29T02:41:30.722Z,81.76
2017-12-29T02:43:58.111Z,81.74
2017-12-29T02:46:25.551Z,83.00
2017-12-29T02:48:52.932Z,83.42
2017-12-29T02:51:20.402Z,83.09
2017-12-29T02:53:47.799Z,83.01
2017-12-29T02:56:15.184Z,82.71
2017-12-29T02:58:42.579Z,82.63
2017-12-29T03:01:09.967Z,82.65
2017-12-29T03:03:38.359Z,82.40
2017-12-29T03:06:05.737Z,82.21
2017-12-29T03:08:33.138Z,81.78
2017-12-29T03:11:00.519Z,81.86
2017-12-29T03:13:27.918Z,82.29
2017-12-29T03:15:55.326Z,82.71
2017-12-29T03:18:22.730Z,82.48
2017-12-29T03:20:50.133Z,82.36
2017-12-29T03:23:17.524Z,82.35
2017-12-29T03:25:44.907Z,82.17
2017-12-29T03:28:12.297Z,82.19
2017-12-29T03:30:39.686Z,82.14
2017-12-29T03:33:07.071Z,82.59
2017-12-29T03:35:34.486Z,82.92
2017-12-29T03:38:01.882Z,82.87
2017-12-29T03:40:29.278Z,82.66
2017-12-29T03:42:56.673Z,82.67
2017-12-29T03:45:24.061Z,82.92
2017-12-29T03:47:51.466Z,82.99
2017-12-29T03:50:18.874Z,83.04
2017-12-29T03:52:46.270Z,83.01
2017-12-29T03:55:13.658Z,83.09
2017-12-29T03:57:41.082Z,83.10
2017-12-29T04:00:08.466Z,83.66
2017-12-29T04:02:35.918Z,83.94
2017-12-29T04:05:03.310Z,83.69
2017-12-29T04:07:30.709Z,83.87
2017-12-29T04:09:58.107Z,84.32
2017-12-29T04:12:25.486Z,83.88
2017-12-29T04:14:52.904Z,84.39
2017-12-29T04:17:20.277Z,84.15
2017-12-29T04:19:47.692Z,84.05
2017-12-29T04:22:15.074Z,85.12
2017-12-29T04:24:42.478Z,85.13
2017-12-29T04:27:09.853Z,85.00
2017-12-29T04:29:37.243Z,84.56
2017-12-29T04:32:04.651Z,84.39
2017-12-29T04:34:32.045Z,84.12
2017-12-29T04:36:59.425Z,83.76
2017-12-29T04:39:26.826Z,83.49
2017-12-29T04:41:54.218Z,83.27
2017-12-29T04:44:21.610Z,83.44
2017-12-29T04:46:49.000Z,83.62
2017-12-29T04:49:16.386Z,83.41
2017-12-29T04:51:43.774Z,83.39
2017-12-29T04:54:11.169Z,82.98
2017-12-29T04:56:38.558Z,82.98
2017-12-29T04:59:05.954Z,83.36
2017-12-29T05:01:33.347Z,83.03
2017-12-29T05:04:00.738Z,82.34
2017-12-29T05:06:28.150Z,82.54
2017-12-29T05:08:55.553Z,82.06
2017-12-29T05:11:22.982Z,81.68
2017-12-29T05:13:50.419Z,81.62
2017-12-29T05:16:17.867Z,81.48
2017-12-29T05:18:45.250Z,81.31
2017-12-29T05:21:12.667Z,82.18
2017-12-29T05:23:40.073Z,81.85
2017-12-29T05:26:07.466Z,81.98
2017-12-29T05:28:34.873Z,82.00
2017-12-29T05:31:02.263Z,82.00
2017-12-29T05:33:29.653Z,82.02
2017-12-29T05:35:57.046Z,81.55
2017-12-29T05:38:24.462Z,81.47
2017-12-29T05:40:51.855Z,81.75
2017-12-29T05:43:19.244Z,81.86
2017-12-29T05:45:46.640Z,81.83
2017-12-29T05:48:14.049Z,81.41
2017-12-29T05:50:41.435Z,81.88
2017-12-29T05:53:08.817Z,81.96
2017-12-29T05:55:36.223Z,81.87
2017-12-29T05:58:03.608Z,81.67
2017-12-29T06:00:31.006Z,82.03
2017-12-29T06:02:58.399Z,82.68
2017-12-29T06:05:25.865Z,82.55
2017-12-29T06:07:53.271Z,82.91
2017-12-29T06:10:20.665Z,82.81
2017-12-29T06:12:48.058Z,82.39
2017-12-29T06:15:15.625Z,82.54
2017-12-29T06:17:43.015Z,82.46
2017-12-29T06:20:10.400Z,82.58
2017-12-29T06:22:37.795Z,83.11
2017-12-29T06:25:05.184Z,82.56
2017-12-29T06:27:32.575Z,83.24
2017-12-29T06:29:59.970Z,83.60
2017-12-29T06:32:27.479Z,83.59
2017-12-29T06:34:54.858Z,83.10
2017-12-29T06:37:22.254Z,83.34
2017-12-29T06:39:49.742Z,83.47
2017-12-29T06:42:17.134Z,83.27
2017-12-29T06:44:44.543Z,82.78
2017-12-29T06:47:11.946Z,82.59
2017-12-29T06:49:39.335Z,82.22
2017-12-29T06:52:06.733Z,82.14
2017-12-29T06:54:34.123Z,82.34
2017-12-29T06:57:01.516Z,82.39
2017-12-29T06:59:28.907Z,82.41
2017-12-29T07:01:56.307Z,82.76
2017-12-29T07:04:23.702Z,82.33
2017-12-29T07:06:51.095Z,82.57
2017-12-29T07:09:18.482Z,82.38
2017-12-29T07:11:45.881Z,81.74
2017-12-29T07:14:13.273Z,81.31
2017-12-29T07:16:40.673Z,82.07
2017-12-29T07:19:08.058Z,82.43
2017-12-29T07:21:35.459Z,81.66
2017-12-29T07:24:02.844Z,81.75
2017-12-29T07:26:30.230Z,82.01
2017-12-29T07:28:57.613Z,81.62
2017-12-29T07:31:25.014Z,81.53
2017-12-29T07:33:52.416Z,81.43
2017-12-29T07:36:19.830Z,82.23
2017-12-29T07:38:47.226Z,81.99
2017-12-29T07:41:14.630Z,81.74
2017-12-29T07:43:42.014Z,81.94
2017-12-29T07:46:09.408Z,81.63
2017-12-29T07:48:36.799Z,81.83
2017-12-29T07:51:04.194Z,82.23
2017-12-29T07:53:31.586Z,82.07
2017-12-29T07:55:59.003Z,82.13
2017-12-29T07:58:26.416Z,81.89
2017-12-29T08:00:53.810Z,82.01
2017-12-29T08:03:21.203Z,82.58
2017-12-29T08:05:48.887Z,82.57
2017-12-29T08:08:16.274Z,83.33
2017-12-29T08:10:43.674Z,82.96
2017-12-29T08:13:11.062Z,82.93
2017-12-29T08:15:38.737Z,83.18
2017-12-29T08:18:06.384Z,83.16
2017-12-29T08:20:33.783Z,83.44
2017-12-29T08:23:01.166Z,83.43
2017-12-29T08:25:28.551Z,83.25
2017-12-29T08:27:55.995Z,82.45
2017-12-29T08:30:23.386Z,82.05
2017-12-29T08:32:50.787Z,81.17
2017-12-29T08:35:18.172Z,80.83
2017-12-29T08:37:45.566Z,79.87
2017-12-29T08:40:12.961Z,78.16
2017-12-29T08:42:40.350Z,76.23
2017-12-29T08:45:07.743Z,73.80
2017-12-29T08:47:35.147Z,72.81
2017-12-29T08:50:02.534Z,72.19
2017-12-29T08:52:29.926Z,72.46
2017-12-29T08:54:57.320Z,71.09
2017-12-29T08:57:24.710Z,69.88
2017-12-29T08:59:52.122Z,67.89
2017-12-29T09:02:19.509Z,67.77
2017-12-29T09:04:46.910Z,67.34
2017-12-29T09:07:14.306Z,66.32
2017-12-29T09:09:41.690Z,65.29
2017-12-29T09:12:09.090Z,64.89
2017-12-29T09:14:36.480Z,64.79
2017-12-29T09:17:03.890Z,65.90
2017-12-29T09:19:31.289Z,65.46
2017-12-29T09:21:58.678Z,63.81
2017-12-29T09:24:26.069Z,63.56
2017-12-29T09:26:53.462Z,62.70
2017-12-29T09:29:20.862Z,62.84
2017-12-29T09:31:48.250Z,63.86
2017-12-29T09:34:15.642Z,63.12
2017-12-29T09:36:43.038Z,64.93
2017-12-29T09:39:10.430Z,66.27
2017-12-29T09:41:37.818Z,67.47
2017-12-29T09:44:05.221Z,67.12
2017-12-29T09:46:32.603Z,66.04
2017-12-29T09:49:00.003Z,65.83
2017-12-29T09:51:27.386Z,65.98
2017-12-29T09:53:54.778Z,65.28
2017-12-29T09:56:22.179Z,63.61
2017-12-29T09:58:49.594Z,63.26
2017-12-29T10:01:16.981Z,63.08
2017-12-29T10:03:44.364Z,62.43
2017-12-29T10:06:11.750Z,63.73
2017-12-29T10:08:39.154Z,62.75
2017-12-29T10:11:06.550Z,62.88
2017-12-29T10:13:33.933Z,65.10
2017-12-29T10:16:01.390Z,66.12
2017-12-29T10:18:28.787Z,68.27
2017-12-29T10:20:56.183Z,69.42
2017-12-29T10:23:23.578Z,70.74
2017-12-29T10:25:51.002Z,69.38
2017-12-29T10:28:18.394Z,68.84
2017-12-29T10:30:45.822Z,67.54
2017-12-29T10:33:13.229Z,66.40
2017-12-29T10:35:40.610Z,64.90
2017-12-29T10:38:08.002Z,64.63
2017-12-29T10:40:35.399Z,64.38
2017-12-29T10:43:02.789Z,64.17
2017-12-29T10:45:30.167Z,64.44
2017-12-29T10:47:57.564Z,63.74
2017-12-29T10:50:24.956Z,64.50
2017-12-29T10:52:52.331Z,63.35
2017-12-29T10:55:19.723Z,64.57
2017-12-29T10:57:47.131Z,64.05
2017-12-29T11:00:14.518Z,64.17
2017-12-29T11:02:41.905Z,63.34
2017-12-29T11:05:09.299Z,62.12
2017-12-29T11:07:36.686Z,61.73
2017-12-29T11:10:04.082Z,63.32
2017-12-29T11:12:31.476Z,61.92
2017-12-29T11:14:58.884Z,62.48
2017-12-29T11:17:26.266Z,61.86
2017-12-29T11:19:53.659Z,62.94
2017-12-29T11:22:21.045Z,64.00
2017-12-29T11:24:48.458Z,63.00
2017-12-29T11:27:15.873Z,63.56
2017-12-29T11:29:43.271Z,64.38
2017-12-29T11:32:10.667Z,64.61
2017-12-29T11:34:38.055Z,66.77
2017-12-29T11:37:05.458Z,67.69
2017-12-29T11:39:32.859Z,68.20
2017-12-29T11:42:00.596Z,69.79
2017-12-29T11:44:28.022Z,69.86
2017-12-29T11:46:55.456Z,69.47
2017-12-29T11:49:22.842Z,69.43
2017-12-29T11:51:50.222Z,69.39
2017-12-29T11:54:17.619Z,69.27
2017-12-29T11:56:44.990Z,69.67
2017-12-29T11:59:12.378Z,69.28
2017-12-29T12:01:39.779Z,69.14
2017-12-29T12:04:07.170Z,69.58
2017-12-29T12:06:34.594Z,70.28
2017-12-29T12:09:01.990Z,69.73
2017-12-29T12:11:29.388Z,69.19
2017-12-29T12:13:56.817Z,68.91
2017-12-29T12:16:24.200Z,69.11
2017-12-29T12:18:51.588Z,68.71
2017-12-29T12:21:19.018Z,67.92
2017-12-29T12:23:46.377Z,68.32
2017-12-29T12:26:13.778Z,67.61
2017-12-29T12:28:41.162Z,66.83
2017-12-29T12:31:08.545Z,67.08
2017-12-29T12:33:35.992Z,67.47
2017-12-29T12:36:03.371Z,67.04
2017-12-29T12:38:30.749Z,65.78
2017-12-29T12:40:58.253Z,66.09
2017-12-29T12:43:25.724Z,65.78
2017-12-29T12:45:53.117Z,64.59
2017-12-29T12:48:20.502Z,65.14
2017-12-29T12:50:47.979Z,64.63
2017-12-29T12:53:15.361Z,65.03
2017-12-29T12:55:42.748Z,64.65
2017-12-29T12:58:10.138Z,64.17
2017-12-29T13:00:37.526Z,65.01
2017-12-29T13:03:04.914Z,65.77
2017-12-29T13:05:32.302Z,66.30
2017-12-29T13:07:59.681Z,65.21
2017-12-29T13:10:27.079Z,65.44
2017-12-29T13:12:54.453Z,65.02
2017-12-29T13:15:21.847Z,65.15
2017-12-29T13:17:49.230Z,65.56
2017-12-29T13:20:16.615Z,65.59
2017-12-29T13:22:43.994Z,64.11
2017-12-29T13:25:11.401Z,64.69
2017-12-29T13:27:38.771Z,63.71
2017-12-29T13:30:06.158Z,64.29
2017-12-29T13:32:33.547Z,64.38
2017-12-29T13:35:00.930Z,64.79
2017-12-29T13:37:28.311Z,63.56
2017-12-29T13:39:55.715Z,64.16
2017-12-29T13:42:23.098Z,64.44
2017-12-29T13:44:50.491Z,63.60
2017-12-29T13:47:17.870Z,63.77
2017-12-29T13:49:45.299Z,63.74
2017-12-29T13:52:12.674Z,63.77
2017-12-29T13:54:40.078Z,63.89
2017-12-29T13:57:07.454Z,64.23
2017-12-29T13:59:34.842Z,64.96
2017-12-29T14:02:02.241Z,64.16
2017-12-29T14:04:29.751Z,64.91
2017-12-29T14:06:57.140Z,64.92
2017-12-29T14:09:24.530Z,64.59
2017-12-29T14:11:51.906Z,64.29
2017-12-29T14:14:19.296Z,64.95
2017-12-29T14:16:46.677Z,64.72
2017-12-29T14:19:14.062Z,65.67
2017-12-29T14:21:41.509Z,65.33
2017-12-29T14:24:08.890Z,65.14
2017-12-29T14:26:36.323Z,65.57
2017-12-29T14:29:03.782Z,65.40
2017-12-29T14:31:31.178Z,65.69
2017-12-29T14:33:58.582Z,67.05
2017-12-29T14:36:25.970Z,66.63
2017-12-29T14:38:53.354Z,67.12
2017-12-29T14:41:20.746Z,67.06
2017-12-29T14:43:48.134Z,68.38
2017-12-29T14:46:15.528Z,67.62
2017-12-29T14:48:42.902Z,68.59
2017-12-29T14:51:10.294Z,68.28
2017-12-29T14:53:37.667Z,68.35
2017-12-29T14:56:05.072Z,68.60
2017-12-29T14:58:32.471Z,68.80
2017-12-29T15:00:59.858Z,68.48
2017-12-29T15:03:27.241Z,68.76
2017-12-29T15:05:54.643Z,69.10
2017-12-29T15:08:22.027Z,69.11
2017-12-29T15:10:49.412Z,68.97
2017-12-29T15:13:16.947Z,68.93
2017-12-29T15:15:44.374Z,68.70
2017-12-29T15:18:11.754Z,69.07
2017-12-29T15:20:39.810Z,69.32
2017-12-29T15:23:07.194Z,69.26
2017-12-29T15:25:34.673Z,69.07
2017-12-29T15:28:02.054Z,68.80
2017-12-29T15:30:29.443Z,69.29
2017-12-29T15:32:56.827Z,69.53
2017-12-29T15:35:24.206Z,69.03
2017-12-29T15:37:51.585Z,68.51
2017-12-29T15:40:18.968Z,68.34
2017-12-29T15:42:46.355Z,68.69
2017-12-29T15:45:13.752Z,69.22
2017-12-29T15:47:41.134Z,68.75
2017-12-29T15:50:08.546Z,68.48
2017-12-29T15:52:35.935Z,67.95
2017-12-29T15:55:03.328Z,67.92
2017-12-29T15:57:30.793Z,68.17
2017-12-29T15:59:58.245Z,68.02
2017-12-29T16:02:26.538Z,67.86
2017-12-29T16:04:53.931Z,67.73
2017-12-29T16:07:21.323Z,68.15
2017-12-29T16:09:48.726Z,67.76
2017-12-29T16:12:16.117Z,67.35
2017-12-29T16:14:43.513Z,67.60
2017-12-29T16:17:10.886Z,67.62
2017-12-29T16:19:38.263Z,67.17
2017-12-29T16:22:05.730Z,67.56
2017-12-29T16:24:33.111Z,67.04
2017-12-29T16:27:00.498Z,66.55
2017-12-29T16:29:27.885Z,66.78
2017-12-29T16:31:55.271Z,67.33
2017-12-29T16:34:22.648Z,67.02
2017-12-29T16:36:50.034Z,67.21
2017-12-29T16:39:17.410Z,67.01
2017-12-29T16:41:44.797Z,66.85
2017-12-29T16:44:12.186Z,66.66
2017-12-29T16:46:39.582Z,66.25
2017-12-29T16:49:06.975Z,66.42
2017-12-29T16:51:34.370Z,66.56
2017-12-29T16:54:01.758Z,66.85
2017-12-29T16:56:29.143Z,66.73
2017-12-29T16:58:56.536Z,67.09
2017-12-29T17:01:23.917Z,66.19
2017-12-29T17:03:51.343Z,66.84
2017-12-29T17:06:18.689Z,67.05
2017-12-29T17:08:46.078Z,66.48
2017-12-29T17:11:13.466Z,66.75
2017-12-29T17:13:41.779Z,66.72
2017-12-29T17:16:09.169Z,67.21
2017-12-29T17:18:36.558Z,66.61
2017-12-29T17:21:03.937Z,66.78
2017-12-29T17:23:31.322Z,66.54
2017-12-29T17:25:58.706Z,66.91
2017-12-29T17:28:26.089Z,66.83
2017-12-29T17:30:53.482Z,67.29
2017-12-29T17:33:20.866Z,67.35
2017-12-29T17:35:48.256Z,67.09
2017-12-29T17:38:15.662Z,67.47
2017-12-29T17:40:43.130Z,67.29
2017-12-29T17:43:10.529Z,66.98
2017-12-29T17:45:37.910Z,66.96
2017-12-29T17:48:05.298Z,67.38
2017-12-29T17:50:32.690Z,67.51
2017-12-29T17:53:00.076Z,67.73
2017-12-29T17:55:27.462Z,67.67
2017-12-29T17:57:54.846Z,68.39
2017-12-29T18:00:22.283Z,67.75
2017-12-29T18:02:49.654Z,68.03
2017-12-29T18:05:17.034Z,67.84
2017-12-29T18:07:44.434Z,67.94
2017-12-29T18:10:11.857Z,68.23
2017-12-29T18:12:39.203Z,68.42
2017-12-29T18:15:06.574Z,68.27
2017-12-29T18:17:34.078Z,68.13
2017-12-29T18:20:01.462Z,68.61
2017-12-29T18:22:28.851Z,68.36
2017-12-29T18:24:56.234Z,68.52
2017-12-29T18:27:23.630Z,69.55
2017-12-29T18:29:51.300Z,70.73
2017-12-29T18:32:18.695Z,72.49
2017-12-29T18:34:46.078Z,73.54
2017-12-29T18:37:13.511Z,75.09
2017-12-29T18:39:40.890Z,78.07
2017-12-29T18:42:08.403Z,79.69
2017-12-29T18:44:35.793Z,81.50
2017-12-29T18:47:03.185Z,82.18
2017-12-29T18:49:30.566Z,83.37
2017-12-29T18:51:57.946Z,83.95
2017-12-29T18:54:25.322Z,85.28
2017-12-29T18:56:52.726Z,86.48
2017-12-29T18:59:20.102Z,87.35
2017-12-29T19:01:47.495Z,88.17
2017-12-29T19:04:14.918Z,88.48
2017-12-29T19:06:42.261Z,88.90
2017-12-29T19:09:09.635Z,88.90
2017-12-29T19:11:37.033Z,88.77
2017-12-29T19:14:04.414Z,88.83
2017-12-29T19:16:31.798Z,88.94
2017-12-29T19:18:59.183Z,89.13
2017-12-29T19:21:26.575Z,89.80
2017-12-29T19:23:54.983Z,89.53
2017-12-29T19:26:22.374Z,89.64
2017-12-29T19:28:49.778Z,89.79
2017-12-29T19:31:17.161Z,89.85
2017-12-29T19:33:44.553Z,90.37
2017-12-29T19:36:11.939Z,90.12
2017-12-29T19:38:39.329Z,90.12
2017-12-29T19:41:06.718Z,90.33
2017-12-29T19:43:34.104Z,90.37
2017-12-29T19:46:01.479Z,90.68
2017-12-29T19:48:28.884Z,90.81
2017-12-29T19:50:56.259Z,90.96
2017-12-29T19:53:23.651Z,91.17
2017-12-29T19:55:51.026Z,91.08
2017-12-29T19:58:18.422Z,91.32
2017-12-29T20:00:45.917Z,91.48
2017-12-29T20:03:13.286Z,91.31
2017-12-29T20:05:40.677Z,91.25
2017-12-29T20:08:08.070Z,91.43
2017-12-29T20:10:35.440Z,91.61
2017-12-29T20:13:02.842Z,91.59
2017-12-29T20:15:30.232Z,91.14
2017-12-29T20:17:57.623Z,91.04
2017-12-29T20:20:25.028Z,91.03
2017-12-29T20:22:52.524Z,91.04
2017-12-29T20:25:19.914Z,91.08
2017-12-29T20:27:47.315Z,91.01
2017-12-29T20:30:14.768Z,90.86
2017-12-29T20:32:42.194Z,90.63
2017-12-29T20:35:09.543Z,90.78
2017-12-29T20:37:37.014Z,90.87
2017-12-29T20:40:04.407Z,91.20
2017-12-29T20:42:31.798Z,91.35
2017-12-29T20:44:59.196Z,91.17
2017-12-29T20:47:26.592Z,91.13
2017-12-29T20:49:53.972Z,90.98
2017-12-29T20:52:21.378Z,90.76
2017-12-29T20:54:48.758Z,90.90
2017-12-29T20:57:16.161Z,90.82
2017-12-29T20:59:43.537Z,91.00
2017-12-29T21:02:10.927Z,90.92
2017-12-29T21:04:38.306Z,90.74
2017-12-29T21:07:05.695Z,90.92
2017-12-29T21:09:33.112Z,91.15
2017-12-29T21:12:00.522Z,91.32
2017-12-29T21:14:27.949Z,91.18
2017-12-29T21:16:55.335Z,91.58
2017-12-29T21:19:22.789Z,91.83
2017-12-29T21:21:50.210Z,92.22
2017-12-29T21:24:17.607Z,92.25
2017-12-29T21:26:45.000Z,92.38
2017-12-29T21:29:12.391Z,92.23
2017-12-29T21:31:39.770Z,92.43
2017-12-29T21:34:07.178Z,92.20
2017-12-29T21:36:34.671Z,92.12
2017-12-29T21:39:02.106Z,92.35
2017-12-29T21:41:29.506Z,92.14
2017-12-29T21:43:56.884Z,92.20
2017-12-29T21:46:24.268Z,92.44
2017-12-29T21:48:51.674Z,92.42
2017-12-29T21:51:19.094Z,92.25
2017-12-29T21:53:46.483Z,92.18
2017-12-29T21:56:13.891Z,92.15
2017-12-29T21:58:41.293Z,92.10
2017-12-29T22:01:08.695Z,92.49
2017-12-29T22:03:36.086Z,92.54
2017-12-29T22:06:03.489Z,92.20
2017-12-29T22:08:30.920Z,91.85
2017-12-29T22:10:58.286Z,91.52
2017-12-29T22:13:25.678Z,91.37
2017-12-29T22:15:53.076Z,91.89
2017-12-29T22:18:20.463Z,91.91
2017-12-29T22:20:47.839Z,91.53
2017-12-29T22:23:15.231Z,91.36
2017-12-29T22:25:42.610Z,91.22
2017-12-29T22:28:10.003Z,90.78
2017-12-29T22:30:37.386Z,91.06
2017-12-29T22:33:04.778Z,90.69
2017-12-29T22:35:32.171Z,90.12
2017-12-29T22:37:59.587Z,89.80
2017-12-29T22:40:26.975Z,90.25
2017-12-29T22:42:54.368Z,90.63
2017-12-29T22:45:21.754Z,90.45
2017-12-29T22:47:49.150Z,90.18
2017-12-29T22:50:16.570Z,90.29
2017-12-29T22:52:43.954Z,89.74
2017-12-29T22:55:11.342Z,89.88
2017-12-29T22:57:38.734Z,89.76
2017-12-29T23:00:06.118Z,89.72
2017-12-29T23:02:33.502Z,89.74
2017-12-29T23:05:00.903Z,90.00
2017-12-29T23:07:28.275Z,89.74
2017-12-29T23:09:55.790Z,89.97
2017-12-29T23:12:23.174Z,90.44
2017-12-29T23:14:50.561Z,90.53
2017-12-29T23:17:17.947Z,90.50
2017-12-29T23:19:45.338Z,90.50
2017-12-29T23:22:12.725Z,91.09
2017-12-29T23:24:40.110Z,90.43
2017-12-29T23:27:07.483Z,90.01
2017-12-29T23:29:34.887Z,89.45
2017-12-29T23:32:02.262Z,88.71
2017-12-29T23:34:29.651Z,88.54
2017-12-29T23:36:57.030Z,89.02
2017-12-29T23:39:24.421Z,89.52
2017-12-29T23:41:51.803Z,89.13
2017-12-29T23:44:19.199Z,88.96
2017-12-29T23:46:46.626Z,88.88
2017-12-29T23:49:14.015Z,89.36
2017-12-29T23:51:41.394Z,89.81
2017-12-29T23:54:08.783Z,90.27
2017-12-29T23:56:36.167Z,90.24
2017-12-29T23:59:03.556Z,89.64
